sensor_id;sensor_type;location;lat;lon;timestamp;P1;durP1;ratioP1;P2;durP2;ratioP2
53674;SDS011;39574;50.534;8.500;2023-07-13T00:03:22;5.9;;;1.5;;
53674;SDS011;39574;50.534;8.500;2023-07-13T00:08:21;6.0;;;1.5;;
53674;SDS011;39574;50.534;8.500;2023-07-13T00:13:21;5.8;;;1.5;;
53674;SDS011;39574;50.534;8.500;2023-07-13T00:18:20;5.5;;;1.4;;
53674;SDS011;39574;50.534;8.500;2023-07-13T00:23:20;6.1;;;1.5;;
53674;SDS011;39574;50.534;8.500;2023-07-13T00:28:19;6.2;;;1.7;;
53674;SDS011;39574;50.534;8.500;2023-07-13T00:33:18;6.5;;;1.7;;
53674;SDS011;39574;50.534;8.500;2023-07-13T00:38:18;6.9;;;1.6;;
53674;SDS011;39574;50.534;8.500;2023-07-13T00:43:17;7.0;;;1.7;;
53674;SDS011;39574;50.534;8.500;2023-07-13T00:48:17;7.0;;;1.7;;
53674;SDS011;39574;50.534;8.500;2023-07-13T00:53:15;6.0;;;1.6;;
53674;SDS011;39574;50.534;8.500;2023-07-13T00:58:15;5.8;;;1.7;;
53674;SDS011;39574;50.534;8.500;2023-07-13T01:03:14;5.6;;;1.6;;
53674;SDS011;39574;50.534;8.500;2023-07-13T01:08:14;5.8;;;1.5;;
53674;SDS011;39574;50.534;8.500;2023-07-13T01:13:13;6.0;;;1.4;;
53674;SDS011;39574;50.534;8.500;2023-07-13T01:18:13;6.6;;;1.5;;
53674;SDS011;39574;50.534;8.500;2023-07-13T01:23:12;6.0;;;1.5;;
53674;SDS011;39574;50.534;8.500;2023-07-13T01:28:11;5.3;;;1.4;;
53674;SDS011;39574;50.534;8.500;2023-07-13T01:33:11;5.2;;;1.4;;
53674;SDS011;39574;50.534;8.500;2023-07-13T01:38:11;5.4;;;1.4;;
53674;SDS011;39574;50.534;8.500;2023-07-13T01:43:10;5.5;;;1.5;;
53674;SDS011;39574;50.534;8.500;2023-07-13T01:48:09;6.0;;;1.4;;
53674;SDS011;39574;50.534;8.500;2023-07-13T01:53:08;5.8;;;1.4;;
53674;SDS011;39574;50.534;8.500;2023-07-13T01:58:08;5.9;;;1.5;;
53674;SDS011;39574;50.534;8.500;2023-07-13T02:03:07;5.4;;;1.4;;
53674;SDS011;39574;50.534;8.500;2023-07-13T02:08:06;5.3;;;1.6;;
53674;SDS011;39574;50.534;8.500;2023-07-13T02:13:06;5.6;;;1.6;;
53674;SDS011;39574;50.534;8.500;2023-07-13T02:18:05;6.2;;;1.6;;
53674;SDS011;39574;50.534;8.500;2023-07-13T02:23:05;6.9;;;1.6;;
53674;SDS011;39574;50.534;8.500;2023-07-13T02:28:04;6.8;;;1.5;;
53674;SDS011;39574;50.534;8.500;2023-07-13T02:33:03;5.7;;;1.4;;
53674;SDS011;39574;50.534;8.500;2023-07-13T02:38:03;5.3;;;1.4;;
53674;SDS011;39574;50.534;8.500;2023-07-13T02:43:02;5.0;;;1.4;;
53674;SDS011;39574;50.534;8.500;2023-07-13T02:48:01;5.0;;;1.5;;
53674;SDS011;39574;50.534;8.500;2023-07-13T02:53:01;5.6;;;1.5;;
53674;SDS011;39574;50.534;8.500;2023-07-13T02:58:00;4.9;;;1.5;;
53674;SDS011;39574;50.534;8.500;2023-07-13T03:02:59;5.1;;;1.6;;
53674;SDS011;39574;50.534;8.500;2023-07-13T03:07:58;5.2;;;1.6;;
53674;SDS011;39574;50.534;8.500;2023-07-13T03:12:58;5.5;;;1.6;;
53674;SDS011;39574;50.534;8.500;2023-07-13T03:17:57;5.5;;;1.7;;
53674;SDS011;39574;50.534;8.500;2023-07-13T03:22:56;5.2;;;1.6;;
53674;SDS011;39574;50.534;8.500;2023-07-13T03:27:56;5.4;;;1.5;;
53674;SDS011;39574;50.534;8.500;2023-07-13T03:32:55;5.6;;;1.6;;
53674;SDS011;39574;50.534;8.500;2023-07-13T03:37:54;5.8;;;1.6;;
53674;SDS011;39574;50.534;8.500;2023-07-13T03:42:53;6.0;;;1.5;;
53674;SDS011;39574;50.534;8.500;2023-07-13T03:47:53;6.0;;;1.6;;
53674;SDS011;39574;50.534;8.500;2023-07-13T03:52:52;6.0;;;1.6;;
53674;SDS011;39574;50.534;8.500;2023-07-13T03:57:57;7.3;;;1.6;;
53674;SDS011;39574;50.534;8.500;2023-07-13T04:02:51;7.2;;;1.6;;
53674;SDS011;39574;50.534;8.500;2023-07-13T04:07:50;7.3;;;1.7;;
53674;SDS011;39574;50.534;8.500;2023-07-13T04:12:49;6.9;;;1.8;;
53674;SDS011;39574;50.534;8.500;2023-07-13T04:17:48;6.3;;;1.8;;
53674;SDS011;39574;50.534;8.500;2023-07-13T04:22:48;5.9;;;1.8;;
53674;SDS011;39574;50.534;8.500;2023-07-13T04:27:47;6.0;;;1.9;;
53674;SDS011;39574;50.534;8.500;2023-07-13T04:32:46;5.9;;;1.8;;
53674;SDS011;39574;50.534;8.500;2023-07-13T04:37:46;5.9;;;1.8;;
53674;SDS011;39574;50.534;8.500;2023-07-13T04:42:45;5.9;;;1.8;;
53674;SDS011;39574;50.534;8.500;2023-07-13T04:47:44;5.8;;;1.8;;
53674;SDS011;39574;50.534;8.500;2023-07-13T04:52:43;5.8;;;1.8;;
53674;SDS011;39574;50.534;8.500;2023-07-13T04:57:43;5.9;;;1.8;;
53674;SDS011;39574;50.534;8.500;2023-07-13T05:02:43;6.4;;;1.9;;
53674;SDS011;39574;50.534;8.500;2023-07-13T05:07:41;5.9;;;1.7;;
53674;SDS011;39574;50.534;8.500;2023-07-13T05:12:40;5.7;;;1.7;;
53674;SDS011;39574;50.534;8.500;2023-07-13T05:17:40;5.2;;;1.6;;
53674;SDS011;39574;50.534;8.500;2023-07-13T05:22:39;5.2;;;1.6;;
53674;SDS011;39574;50.534;8.500;2023-07-13T05:27:38;5.8;;;1.7;;
53674;SDS011;39574;50.534;8.500;2023-07-13T05:32:37;6.7;;;1.8;;
53674;SDS011;39574;50.534;8.500;2023-07-13T05:37:37;6.9;;;1.8;;
53674;SDS011;39574;50.534;8.500;2023-07-13T05:42:36;7.3;;;1.8;;
53674;SDS011;39574;50.534;8.500;2023-07-13T05:47:36;6.9;;;1.7;;
53674;SDS011;39574;50.534;8.500;2023-07-13T05:52:35;6.3;;;1.6;;
53674;SDS011;39574;50.534;8.500;2023-07-13T05:57:35;5.7;;;1.5;;
53674;SDS011;39574;50.534;8.500;2023-07-13T06:02:34;5.2;;;1.5;;
53674;SDS011;39574;50.534;8.500;2023-07-13T06:07:33;5.4;;;1.7;;
53674;SDS011;39574;50.534;8.500;2023-07-13T06:12:33;5.3;;;1.6;;
53674;SDS011;39574;50.534;8.500;2023-07-13T06:17:32;6.6;;;1.5;;
53674;SDS011;39574;50.534;8.500;2023-07-13T06:22:32;7.0;;;1.4;;
53674;SDS011;39574;50.534;8.500;2023-07-13T06:27:31;5.9;;;1.4;;
53674;SDS011;39574;50.534;8.500;2023-07-13T06:32:31;5.9;;;1.4;;
53674;SDS011;39574;50.534;8.500;2023-07-13T06:37:30;6.9;;;1.4;;
53674;SDS011;39574;50.534;8.500;2023-07-13T06:42:29;7.0;;;1.5;;
53674;SDS011;39574;50.534;8.500;2023-07-13T06:47:29;6.3;;;1.4;;
53674;SDS011;39574;50.534;8.500;2023-07-13T06:52:28;6.0;;;1.5;;
53674;SDS011;39574;50.534;8.500;2023-07-13T12:21:58;5.6;;;1.1;;
53674;SDS011;39574;50.534;8.500;2023-07-13T12:26:59;5.5;;;1.2;;
53674;SDS011;39574;50.534;8.500;2023-07-13T12:31:58;5.2;;;1.3;;
53674;SDS011;39574;50.534;8.500;2023-07-13T12:36:58;5.3;;;1.4;;
53674;SDS011;39574;50.534;8.500;2023-07-13T12:42:09;4.8;;;1.4;;
53674;SDS011;39574;50.534;8.500;2023-07-13T12:46:57;4.5;;;1.4;;
53674;SDS011;39574;50.534;8.500;2023-07-13T12:51:57;4.2;;;1.2;;
53674;SDS011;39574;50.534;8.500;2023-07-13T12:56:56;4.2;;;1.2;;
53674;SDS011;39574;50.534;8.500;2023-07-13T13:01:55;4.3;;;1.2;;
53674;SDS011;39574;50.534;8.500;2023-07-13T13:07:03;4.3;;;1.3;;
53674;SDS011;39574;50.534;8.500;2023-07-13T13:11:55;4.7;;;1.5;;
53674;SDS011;39574;50.534;8.500;2023-07-13T13:16:54;5.0;;;1.5;;
53674;SDS011;39574;50.534;8.500;2023-07-13T13:21:54;5.0;;;1.5;;
53674;SDS011;39574;50.534;8.500;2023-07-13T13:26:54;4.8;;;1.4;;
53674;SDS011;39574;50.534;8.500;2023-07-13T13:31:54;5.1;;;1.4;;
53674;SDS011;39574;50.534;8.500;2023-07-13T13:36:53;5.1;;;1.4;;
53674;SDS011;39574;50.534;8.500;2023-07-13T13:41:53;5.0;;;1.4;;
53674;SDS011;39574;50.534;8.500;2023-07-13T13:46:53;5.3;;;1.4;;
53674;SDS011;39574;50.534;8.500;2023-07-13T13:51:52;5.0;;;1.4;;
53674;SDS011;39574;50.534;8.500;2023-07-13T13:56:52;5.3;;;1.5;;
53674;SDS011;39574;50.534;8.500;2023-07-13T14:01:51;5.4;;;1.4;;
53674;SDS011;39574;50.534;8.500;2023-07-13T14:06:50;5.5;;;1.5;;
53674;SDS011;39574;50.534;8.500;2023-07-13T14:11:50;5.7;;;1.4;;
53674;SDS011;39574;50.534;8.500;2023-07-13T14:16:50;7.3;;;2.4;;
53674;SDS011;39574;50.534;8.500;2023-07-13T14:21:49;7.1;;;2.3;;
53674;SDS011;39574;50.534;8.500;2023-07-13T14:26:49;6.1;;;1.9;;
53674;SDS011;39574;50.534;8.500;2023-07-13T14:31:48;5.3;;;1.7;;
53674;SDS011;39574;50.534;8.500;2023-07-13T14:36:48;4.5;;;1.4;;
53674;SDS011;39574;50.534;8.500;2023-07-13T14:46:47;4.6;;;1.4;;
53674;SDS011;39574;50.534;8.500;2023-07-13T14:51:47;4.5;;;1.5;;
53674;SDS011;39574;50.534;8.500;2023-07-13T14:56:47;4.4;;;1.5;;
53674;SDS011;39574;50.534;8.500;2023-07-13T15:01:46;4.4;;;1.5;;
53674;SDS011;39574;50.534;8.500;2023-07-13T15:06:54;4.5;;;1.5;;
53674;SDS011;39574;50.534;8.500;2023-07-13T15:11:45;5.3;;;1.6;;
53674;SDS011;39574;50.534;8.500;2023-07-13T15:16:45;5.3;;;1.5;;
53674;SDS011;39574;50.534;8.500;2023-07-13T15:21:45;6.3;;;1.6;;
53674;SDS011;39574;50.534;8.500;2023-07-13T15:26:44;5.6;;;1.5;;
53674;SDS011;39574;50.534;8.500;2023-07-13T15:31:44;5.9;;;1.4;;
53674;SDS011;39574;50.534;8.500;2023-07-13T15:36:43;5.3;;;1.3;;
53674;SDS011;39574;50.534;8.500;2023-07-13T15:41:43;5.1;;;1.3;;
53674;SDS011;39574;50.534;8.500;2023-07-13T15:46:42;5.6;;;1.4;;
53674;SDS011;39574;50.534;8.500;2023-07-13T15:51:42;4.9;;;1.4;;
53674;SDS011;39574;50.534;8.500;2023-07-13T15:56:42;4.5;;;1.3;;
53674;SDS011;39574;50.534;8.500;2023-07-13T16:01:41;4.5;;;1.4;;
53674;SDS011;39574;50.534;8.500;2023-07-13T16:06:41;5.8;;;1.5;;
53674;SDS011;39574;50.534;8.500;2023-07-13T16:11:40;5.3;;;1.4;;
53674;SDS011;39574;50.534;8.500;2023-07-13T16:16:40;4.8;;;1.4;;
53674;SDS011;39574;50.534;8.500;2023-07-13T16:21:44;4.2;;;1.4;;
53674;SDS011;39574;50.534;8.500;2023-07-13T16:26:39;3.9;;;1.3;;
53674;SDS011;39574;50.534;8.500;2023-07-13T16:31:39;5.1;;;1.4;;
53674;SDS011;39574;50.534;8.500;2023-07-13T16:36:39;5.5;;;1.6;;
53674;SDS011;39574;50.534;8.500;2023-07-13T16:41:38;5.2;;;1.6;;
53674;SDS011;39574;50.534;8.500;2023-07-13T16:46:38;4.8;;;1.5;;
53674;SDS011;39574;50.534;8.500;2023-07-13T16:51:38;4.5;;;1.5;;
53674;SDS011;39574;50.534;8.500;2023-07-13T16:56:37;4.5;;;1.4;;
53674;SDS011;39574;50.534;8.500;2023-07-13T17:01:37;5.0;;;1.5;;
53674;SDS011;39574;50.534;8.500;2023-07-13T17:06:37;5.2;;;1.8;;
53674;SDS011;39574;50.534;8.500;2023-07-13T17:11:36;5.0;;;1.7;;
53674;SDS011;39574;50.534;8.500;2023-07-13T17:16:36;5.4;;;1.8;;
53674;SDS011;39574;50.534;8.500;2023-07-13T17:21:36;5.3;;;1.6;;
53674;SDS011;39574;50.534;8.500;2023-07-13T17:26:35;5.2;;;1.5;;
53674;SDS011;39574;50.534;8.500;2023-07-13T17:31:35;5.8;;;1.6;;
53674;SDS011;39574;50.534;8.500;2023-07-13T17:36:34;6.2;;;1.7;;
53674;SDS011;39574;50.534;8.500;2023-07-13T17:41:34;7.0;;;1.6;;
53674;SDS011;39574;50.534;8.500;2023-07-13T17:46:34;6.5;;;1.6;;
53674;SDS011;39574;50.534;8.500;2023-07-13T17:51:33;6.2;;;1.6;;
53674;SDS011;39574;50.534;8.500;2023-07-13T17:56:33;5.7;;;1.7;;
53674;SDS011;39574;50.534;8.500;2023-07-13T18:01:33;5.4;;;1.6;;
53674;SDS011;39574;50.534;8.500;2023-07-13T18:06:33;5.6;;;1.7;;
53674;SDS011;39574;50.534;8.500;2023-07-13T18:11:32;5.2;;;1.6;;
53674;SDS011;39574;50.534;8.500;2023-07-13T18:16:31;4.8;;;1.5;;
53674;SDS011;39574;50.534;8.500;2023-07-13T18:21:31;5.2;;;1.7;;
53674;SDS011;39574;50.534;8.500;2023-07-13T18:26:30;5.3;;;1.6;;
53674;SDS011;39574;50.534;8.500;2023-07-13T18:31:30;5.1;;;1.7;;
53674;SDS011;39574;50.534;8.500;2023-07-13T18:36:29;4.8;;;1.7;;
53674;SDS011;39574;50.534;8.500;2023-07-13T18:41:29;5.5;;;1.8;;
53674;SDS011;39574;50.534;8.500;2023-07-13T18:46:29;5.7;;;1.8;;
53674;SDS011;39574;50.534;8.500;2023-07-13T18:51:28;5.6;;;1.6;;
53674;SDS011;39574;50.534;8.500;2023-07-13T18:56:28;5.7;;;1.7;;
53674;SDS011;39574;50.534;8.500;2023-07-13T19:01:29;5.7;;;1.6;;
53674;SDS011;39574;50.534;8.500;2023-07-13T19:06:27;5.3;;;1.5;;
53674;SDS011;39574;50.534;8.500;2023-07-13T19:11:26;4.7;;;1.4;;
53674;SDS011;39574;50.534;8.500;2023-07-13T19:16:26;5.2;;;1.5;;
53674;SDS011;39574;50.534;8.500;2023-07-13T19:21:29;4.8;;;1.6;;
53674;SDS011;39574;50.534;8.500;2023-07-13T19:26:26;4.5;;;1.5;;
53674;SDS011;39574;50.534;8.500;2023-07-13T19:31:25;4.6;;;1.5;;
53674;SDS011;39574;50.534;8.500;2023-07-13T19:36:24;4.5;;;1.5;;
53674;SDS011;39574;50.534;8.500;2023-07-13T19:41:24;5.7;;;1.6;;
53674;SDS011;39574;50.534;8.500;2023-07-13T19:46:25;6.0;;;1.7;;
53674;SDS011;39574;50.534;8.500;2023-07-13T19:51:23;5.7;;;1.7;;
53674;SDS011;39574;50.534;8.500;2023-07-13T19:56:22;5.1;;;1.6;;
53674;SDS011;39574;50.534;8.500;2023-07-13T20:01:22;5.0;;;1.6;;
53674;SDS011;39574;50.534;8.500;2023-07-13T20:06:24;4.8;;;1.6;;
53674;SDS011;39574;50.534;8.500;2023-07-13T20:11:21;5.6;;;1.8;;
53674;SDS011;39574;50.534;8.500;2023-07-13T20:16:20;5.7;;;1.7;;
53674;SDS011;39574;50.534;8.500;2023-07-13T20:21:20;5.6;;;1.7;;
53674;SDS011;39574;50.534;8.500;2023-07-13T20:26:19;5.2;;;1.6;;
53674;SDS011;39574;50.534;8.500;2023-07-13T20:31:19;5.2;;;1.6;;
53674;SDS011;39574;50.534;8.500;2023-07-13T20:36:19;5.6;;;1.6;;
53674;SDS011;39574;50.534;8.500;2023-07-13T20:41:18;6.1;;;1.7;;
53674;SDS011;39574;50.534;8.500;2023-07-13T20:46:18;6.0;;;1.8;;
53674;SDS011;39574;50.534;8.500;2023-07-13T20:51:19;5.5;;;1.8;;
53674;SDS011;39574;50.534;8.500;2023-07-13T20:56:17;4.9;;;1.7;;
53674;SDS011;39574;50.534;8.500;2023-07-13T21:01:18;5.3;;;1.7;;
53674;SDS011;39574;50.534;8.500;2023-07-13T21:06:16;5.1;;;1.6;;
53674;SDS011;39574;50.534;8.500;2023-07-13T21:11:15;6.3;;;1.7;;
53674;SDS011;39574;50.534;8.500;2023-07-13T21:16:17;6.5;;;1.8;;
53674;SDS011;39574;50.534;8.500;2023-07-13T21:21:14;6.5;;;1.8;;
53674;SDS011;39574;50.534;8.500;2023-07-13T21:26:14;6.1;;;1.8;;
53674;SDS011;39574;50.534;8.500;2023-07-13T21:31:15;5.5;;;1.7;;
53674;SDS011;39574;50.534;8.500;2023-07-13T21:36:12;5.3;;;1.8;;
53674;SDS011;39574;50.534;8.500;2023-07-13T21:41:13;5.5;;;1.8;;
53674;SDS011;39574;50.534;8.500;2023-07-13T21:46:11;5.5;;;1.8;;
53674;SDS011;39574;50.534;8.500;2023-07-13T21:51:14;5.6;;;1.9;;
53674;SDS011;39574;50.534;8.500;2023-07-13T21:56:10;5.5;;;1.8;;
53674;SDS011;39574;50.534;8.500;2023-07-13T22:01:13;5.2;;;1.7;;
53674;SDS011;39574;50.534;8.500;2023-07-13T22:06:09;5.8;;;1.7;;
53674;SDS011;39574;50.534;8.500;2023-07-13T22:11:09;5.9;;;1.7;;
53674;SDS011;39574;50.534;8.500;2023-07-13T22:16:12;6.3;;;2.0;;
53674;SDS011;39574;50.534;8.500;2023-07-13T22:21:07;5.8;;;1.9;;
53674;SDS011;39574;50.534;8.500;2023-07-13T22:26:12;5.6;;;2.0;;
53674;SDS011;39574;50.534;8.500;2023-07-13T22:31:07;5.9;;;2.1;;
53674;SDS011;39574;50.534;8.500;2023-07-13T22:36:07;6.0;;;1.9;;
53674;SDS011;39574;50.534;8.500;2023-07-13T22:41:05;6.4;;;1.9;;
53674;SDS011;39574;50.534;8.500;2023-07-13T22:46:05;6.3;;;1.9;;
53674;SDS011;39574;50.534;8.500;2023-07-13T22:51:04;5.8;;;1.9;;
53674;SDS011;39574;50.534;8.500;2023-07-13T22:56:03;5.7;;;1.9;;
53674;SDS011;39574;50.534;8.500;2023-07-13T23:01:02;5.6;;;1.9;;
53674;SDS011;39574;50.534;8.500;2023-07-13T23:06:01;5.6;;;2.0;;
53674;SDS011;39574;50.534;8.500;2023-07-13T23:11:01;5.8;;;2.0;;
53674;SDS011;39574;50.534;8.500;2023-07-13T23:16:00;5.9;;;2.0;;
53674;SDS011;39574;50.534;8.500;2023-07-13T23:20:59;6.1;;;2.0;;
53674;SDS011;39574;50.534;8.500;2023-07-13T23:25:59;5.8;;;1.9;;
53674;SDS011;39574;50.534;8.500;2023-07-13T23:30:58;7.0;;;2.0;;
53674;SDS011;39574;50.534;8.500;2023-07-13T23:35:57;6.6;;;2.0;;
53674;SDS011;39574;50.534;8.500;2023-07-13T23:40:57;6.6;;;2.0;;
53674;SDS011;39574;50.534;8.500;2023-07-13T23:45:56;6.1;;;2.0;;
53674;SDS011;39574;50.534;8.500;2023-07-13T23:50:55;6.0;;;2.0;;
53674;SDS011;39574;50.534;8.500;2023-07-13T23:55:55;5.8;;;2.0;;
